עמוד ראשי
METAR-TAF:

METAR-TAF

שדות תעופה :

Cobija, בוליביה

קו רוחב: 11-02S, קו אורך: 068-47W, גובה: 235מטר

תצפית מזג אוויר נוכחית

הדו"ח נערך לפני 2 שעות ו 34דקות, בשעה 23:00 UTC
רוח 5קשר מכיוון דרום/דרום-מזרח
טמפרטורת 22 צלסיוס
לחות 83%
לחץ 1013 hPa
ראות 10 קילומטר או יותר
עננים פזורים בגובה 2000רגל
מעונן בגובה 7000רגל

METAR: SLCO 202300Z 15005KT 9999 SCT020 OVC070 22/19 Q1013

זמן: 21:34 (01:34 UTC)

תחזית

הדו"ח נערך לפני 3 שעות ו 34דקות, בשעה 22:00 UTC
תחזית בתוקף מ 21 ב 00 UTC עד 21 ב 24 UTC
רוח קשר מכיוון צפון
ראות 10 קילומטר או יותר
עננים בינוניים בגובה 1300רגל
זמנית מ -
21 ב 09 UTC עד 21 ב 11 UTC
עננים בינוניים בגובה 400רגל
יעשה מ
21 ב 12 UTC עד 21 ב 14 UTC
רוח 10קשר מכיוון מערב/צפון-מערב
עננים בינוניים בגובה 2000רגל

TAF: SLCO 202200Z 2100/2124 00000KT 9999 BKN013 TX28/2119Z TN19/2110Z TEMPO 2109/2111 BKN004 BECMG 2112/2114 29010KT BKN020

תצפיות ותחזיות מזג אוויר לגבי יותר מ- 4,000 שדות תעופה ברחבי העולם. דוחות METAR ו- TAF.

התחנות הזמינות מסומנות בנקודות צהובות ואדומות על גבי המפה.

העבר את העכבר לנקודה הצבעונית על מנת לראות את שם התחנה.

לאחר מכן, לחץ כדי לראות את תוכן ואת תחזיות מזג האוויר.

כדי לשנות את המפה: לחץ על הכפתורים הירוקים עם הפלוס השחור כדי להתקרב; על הכפתור הירוק עם המקף כדי להתרחק; או בחיצים הירוקים למפות סמוכות.


METAR-TAF: